sensor_id;sensor_type;location;lat;lon;timestamp;pressure;altitude;pressure_sealevel;temperature;humidity
69219;BME280;56232;53.384;-2.732;2023-07-13T00:01:55;100832.49;;;16.55;31.11
69219;BME280;56232;53.384;-2.732;2023-07-13T00:04:22;100833.07;;;16.41;30.94
69219;BME280;56232;53.384;-2.732;2023-07-13T00:06:47;100836.92;;;17.47;31.42
69219;BME280;56232;53.384;-2.732;2023-07-13T00:09:12;100843.19;;;16.43;31.43
69219;BME280;56232;53.384;-2.732;2023-07-13T00:11:38;100840.05;;;16.47;31.36
69219;BME280;56232;53.384;-2.732;2023-07-13T00:14:03;100842.95;;;16.42;31.01
69219;BME280;56232;53.384;-2.732;2023-07-13T00:16:29;100841.25;;;16.44;31.39
69219;BME280;56232;53.384;-2.732;2023-07-13T00:18:54;100842.78;;;16.47;31.52
69219;BME280;56232;53.384;-2.732;2023-07-13T00:21:20;100846.70;;;16.47;31.39
69219;BME280;56232;53.384;-2.732;2023-07-13T00:23:46;100839.08;;;17.09;31.70
69219;BME280;56232;53.384;-2.732;2023-07-13T00:26:11;100833.27;;;17.09;31.65
69219;BME280;56232;53.384;-2.732;2023-07-13T00:28:37;100834.29;;;16.64;31.52
69219;BME280;56232;53.384;-2.732;2023-07-13T00:31:02;100835.54;;;16.71;31.17
69219;BME280;56232;53.384;-2.732;2023-07-13T00:33:28;100833.73;;;16.64;31.15
69219;BME280;56232;53.384;-2.732;2023-07-13T00:35:54;100834.06;;;16.50;31.27
69219;BME280;56232;53.384;-2.732;2023-07-13T00:38:20;100835.11;;;16.41;31.31
69219;BME280;56232;53.384;-2.732;2023-07-13T00:40:45;100837.95;;;16.25;31.21
69219;BME280;56232;53.384;-2.732;2023-07-13T00:43:13;100840.55;;;16.08;31.01
69219;BME280;56232;53.384;-2.732;2023-07-13T00:48:02;100834.84;;;16.01;31.28
69219;BME280;56232;53.384;-2.732;2023-07-13T00:50:28;100839.89;;;16.00;31.28
69219;BME280;56232;53.384;-2.732;2023-07-13T00:52:55;100840.17;;;17.05;31.20
69219;BME280;56232;53.384;-2.732;2023-07-13T00:55:20;100838.46;;;16.57;31.13
69219;BME280;56232;53.384;-2.732;2023-07-13T00:57:44;100839.65;;;15.99;31.11
69219;BME280;56232;53.384;-2.732;2023-07-13T01:00:11;100839.89;;;17.07;31.03
69219;BME280;56232;53.384;-2.732;2023-07-13T01:02:38;100841.53;;;17.10;31.12
69219;BME280;56232;53.384;-2.732;2023-07-13T01:05:04;100838.57;;;16.04;31.34
69219;BME280;56232;53.384;-2.732;2023-07-13T01:07:27;100839.99;;;16.64;31.32
69219;BME280;56232;53.384;-2.732;2023-07-13T01:09:53;100846.02;;;16.68;30.99
69219;BME280;56232;53.384;-2.732;2023-07-13T01:12:18;100849.53;;;17.23;31.22
69219;BME280;56232;53.384;-2.732;2023-07-13T01:14:44;100849.54;;;16.30;31.40
69219;BME280;56232;53.384;-2.732;2023-07-13T01:17:10;100852.10;;;17.04;31.41
69219;BME280;56232;53.384;-2.732;2023-07-13T01:19:37;100852.45;;;17.14;31.59
69219;BME280;56232;53.384;-2.732;2023-07-13T01:22:02;100852.64;;;16.63;31.20
69219;BME280;56232;53.384;-2.732;2023-07-13T01:24:27;100851.65;;;17.28;31.12
69219;BME280;56232;53.384;-2.732;2023-07-13T01:26:52;100856.08;;;17.37;31.10
69219;BME280;56232;53.384;-2.732;2023-07-13T01:29:18;100856.21;;;16.35;31.06
69219;BME280;56232;53.384;-2.732;2023-07-13T01:31:43;100858.55;;;16.92;30.93
69219;BME280;56232;53.384;-2.732;2023-07-13T01:34:09;100857.65;;;17.01;30.80
69219;BME280;56232;53.384;-2.732;2023-07-13T01:36:34;100861.26;;;17.64;30.53
69219;BME280;56232;53.384;-2.732;2023-07-13T01:39:00;100858.72;;;17.04;30.82
69219;BME280;56232;53.384;-2.732;2023-07-13T01:41:26;100853.34;;;17.03;30.89
69219;BME280;56232;53.384;-2.732;2023-07-13T01:43:52;100852.65;;;17.48;31.02
69219;BME280;56232;53.384;-2.732;2023-07-13T01:46:17;100850.30;;;16.67;30.51
69219;BME280;56232;53.384;-2.732;2023-07-13T01:48:43;100851.48;;;16.57;30.98
69219;BME280;56232;53.384;-2.732;2023-07-13T01:51:08;100852.43;;;16.52;31.12
69219;BME280;56232;53.384;-2.732;2023-07-13T01:53:34;100854.39;;;16.50;31.18
69219;BME280;56232;53.384;-2.732;2023-07-13T01:55:59;100853.82;;;16.53;31.27
69219;BME280;56232;53.384;-2.732;2023-07-13T01:58:25;100851.73;;;16.52;31.23
69219;BME280;56232;53.384;-2.732;2023-07-13T02:00:52;100849.36;;;16.97;31.09
69219;BME280;56232;53.384;-2.732;2023-07-13T02:03:16;100847.60;;;16.29;31.16
69219;BME280;56232;53.384;-2.732;2023-07-13T02:05:42;100850.36;;;16.98;31.36
69219;BME280;56232;53.384;-2.732;2023-07-13T02:08:08;100850.00;;;16.46;31.21
69219;BME280;56232;53.384;-2.732;2023-07-13T02:10:33;100848.65;;;16.49;30.89
69219;BME280;56232;53.384;-2.732;2023-07-13T02:12:59;100847.68;;;16.55;31.02
69219;BME280;56232;53.384;-2.732;2023-07-13T02:15:25;100846.85;;;17.18;31.25
69219;BME280;56232;53.384;-2.732;2023-07-13T02:17:51;100845.35;;;16.63;31.24
69219;BME280;56232;53.384;-2.732;2023-07-13T02:20:16;100845.30;;;16.66;31.35
69219;BME280;56232;53.384;-2.732;2023-07-13T02:22:41;100846.42;;;17.79;31.24
69219;BME280;56232;53.384;-2.732;2023-07-13T02:25:08;100845.63;;;16.70;31.05
69219;BME280;56232;53.384;-2.732;2023-07-13T02:27:33;100842.91;;;16.69;30.90
69219;BME280;56232;53.384;-2.732;2023-07-13T02:29:58;100839.00;;;16.63;31.40
69219;BME280;56232;53.384;-2.732;2023-07-13T02:32:24;100839.69;;;16.58;31.10
69219;BME280;56232;53.384;-2.732;2023-07-13T02:34:52;100836.84;;;16.53;30.82
69219;BME280;56232;53.384;-2.732;2023-07-13T02:37:15;100834.73;;;16.48;30.92
69219;BME280;56232;53.384;-2.732;2023-07-13T02:39:41;100834.58;;;17.65;30.94
69219;BME280;56232;53.384;-2.732;2023-07-13T02:42:07;100835.55;;;16.51;30.82
69219;BME280;56232;53.384;-2.732;2023-07-13T02:44:33;100837.25;;;16.50;30.82
69219;BME280;56232;53.384;-2.732;2023-07-13T02:46:58;100837.86;;;16.54;31.06
69219;BME280;56232;53.384;-2.732;2023-07-13T02:49:24;100841.48;;;16.53;30.79
69219;BME280;56232;53.384;-2.732;2023-07-13T02:51:52;100845.89;;;17.04;30.78
69219;BME280;56232;53.384;-2.732;2023-07-13T02:54:15;100851.65;;;16.38;31.07
69219;BME280;56232;53.384;-2.732;2023-07-13T02:56:41;100851.16;;;16.92;30.62
69219;BME280;56232;53.384;-2.732;2023-07-13T02:59:07;100851.63;;;16.18;30.78
69219;BME280;56232;53.384;-2.732;2023-07-13T03:01:32;100848.88;;;16.70;30.91
69219;BME280;56232;53.384;-2.732;2023-07-13T03:03:57;100847.41;;;16.10;30.97
69219;BME280;56232;53.384;-2.732;2023-07-13T03:06:23;100849.86;;;16.75;30.99
69219;BME280;56232;53.384;-2.732;2023-07-13T03:08:50;100853.17;;;16.11;30.79
69219;BME280;56232;53.384;-2.732;2023-07-13T03:11:17;100854.47;;;15.91;30.49
69219;BME280;56232;53.384;-2.732;2023-07-13T03:13:41;100854.54;;;16.73;30.86
69219;BME280;56232;53.384;-2.732;2023-07-13T03:16:06;100854.81;;;16.06;31.20
69219;BME280;56232;53.384;-2.732;2023-07-13T03:18:32;100855.32;;;16.59;31.19
69219;BME280;56232;53.384;-2.732;2023-07-13T03:20:57;100855.77;;;15.52;31.26
69219;BME280;56232;53.384;-2.732;2023-07-13T03:23:23;100857.51;;;16.09;31.19
69219;BME280;56232;53.384;-2.732;2023-07-13T03:25:49;100859.39;;;16.54;31.06
69219;BME280;56232;53.384;-2.732;2023-07-13T03:28:14;100860.73;;;16.48;31.00
69219;BME280;56232;53.384;-2.732;2023-07-13T03:30:39;100859.24;;;16.46;31.11
69219;BME280;56232;53.384;-2.732;2023-07-13T03:33:05;100859.77;;;15.22;31.15
69219;BME280;56232;53.384;-2.732;2023-07-13T03:35:31;100859.36;;;15.72;30.95
69219;BME280;56232;53.384;-2.732;2023-07-13T03:37:56;100858.54;;;16.03;30.81
69219;BME280;56232;53.384;-2.732;2023-07-13T03:40:23;100858.22;;;15.82;31.02
69219;BME280;56232;53.384;-2.732;2023-07-13T03:42:48;100860.01;;;16.75;31.13
69219;BME280;56232;53.384;-2.732;2023-07-13T03:45:14;100859.21;;;14.97;31.40
69219;BME280;56232;53.384;-2.732;2023-07-13T03:47:39;100859.94;;;15.37;31.46
69219;BME280;56232;53.384;-2.732;2023-07-13T03:50:07;100863.33;;;15.30;31.74
69219;BME280;56232;53.384;-2.732;2023-07-13T03:52:30;100868.34;;;15.15;31.38
69219;BME280;56232;53.384;-2.732;2023-07-13T03:54:56;100866.25;;;14.99;31.61
69219;BME280;56232;53.384;-2.732;2023-07-13T03:57:22;100868.41;;;14.93;31.67
69219;BME280;56232;53.384;-2.732;2023-07-13T03:59:47;100875.15;;;16.02;31.47
69219;BME280;56232;53.384;-2.732;2023-07-13T04:02:13;100878.02;;;15.36;31.35
69219;BME280;56232;53.384;-2.732;2023-07-13T04:04:39;100881.45;;;15.32;31.52
69219;BME280;56232;53.384;-2.732;2023-07-13T04:07:04;100882.27;;;14.73;31.93
69219;BME280;56232;53.384;-2.732;2023-07-13T04:09:30;100879.93;;;15.14;31.62
69219;BME280;56232;53.384;-2.732;2023-07-13T04:11:56;100883.33;;;14.62;31.79
69219;BME280;56232;53.384;-2.732;2023-07-13T04:14:21;100884.29;;;15.69;31.87
69219;BME280;56232;53.384;-2.732;2023-07-13T04:16:47;100881.82;;;14.53;31.85
69219;BME280;56232;53.384;-2.732;2023-07-13T04:19:13;100882.69;;;15.60;31.31
69219;BME280;56232;53.384;-2.732;2023-07-13T04:21:38;100880.80;;;14.92;31.49
69219;BME280;56232;53.384;-2.732;2023-07-13T04:24:04;100886.33;;;15.49;31.70
69219;BME280;56232;53.384;-2.732;2023-07-13T04:26:30;100889.35;;;14.88;32.01
69219;BME280;56232;53.384;-2.732;2023-07-13T04:28:55;100893.85;;;14.98;31.91
69219;BME280;56232;53.384;-2.732;2023-07-13T04:31:21;100895.86;;;15.56;31.72
69219;BME280;56232;53.384;-2.732;2023-07-13T04:33:46;100898.69;;;15.04;31.77
69219;BME280;56232;53.384;-2.732;2023-07-13T04:36:12;100903.59;;;15.73;31.64
69219;BME280;56232;53.384;-2.732;2023-07-13T04:38:38;100905.05;;;15.76;31.47
69219;BME280;56232;53.384;-2.732;2023-07-13T04:41:05;100903.55;;;15.66;31.62
69219;BME280;56232;53.384;-2.732;2023-07-13T04:43:30;100903.59;;;15.02;31.48
69219;BME280;56232;53.384;-2.732;2023-07-13T04:45:55;100900.06;;;15.06;31.69
69219;BME280;56232;53.384;-2.732;2023-07-13T04:48:21;100906.11;;;15.76;31.78
69219;BME280;56232;53.384;-2.732;2023-07-13T04:50:46;100907.44;;;15.18;31.19
69219;BME280;56232;53.384;-2.732;2023-07-13T04:53:12;100910.77;;;15.19;31.50
69219;BME280;56232;53.384;-2.732;2023-07-13T04:55:37;100910.90;;;15.28;31.46
69219;BME280;56232;53.384;-2.732;2023-07-13T04:58:03;100908.88;;;14.87;31.71
69219;BME280;56232;53.384;-2.732;2023-07-13T05:00:29;100911.01;;;15.49;31.74
69219;BME280;56232;53.384;-2.732;2023-07-13T05:02:55;100915.23;;;15.57;31.46
69219;BME280;56232;53.384;-2.732;2023-07-13T05:05:20;100915.24;;;15.73;31.39
69219;BME280;56232;53.384;-2.732;2023-07-13T05:07:45;100913.88;;;15.88;31.07
69219;BME280;56232;53.384;-2.732;2023-07-13T05:10:11;100920.14;;;18.13;28.73
69219;BME280;56232;53.384;-2.732;2023-07-13T05:12:37;100918.58;;;19.04;28.51
69219;BME280;56232;53.384;-2.732;2023-07-13T05:15:07;100924.65;;;18.65;29.26
69219;BME280;56232;53.384;-2.732;2023-07-13T05:17:28;100926.32;;;19.76;27.40
69219;BME280;56232;53.384;-2.732;2023-07-13T05:19:54;100920.11;;;19.38;27.69
69219;BME280;56232;53.384;-2.732;2023-07-13T05:22:19;100925.41;;;18.91;29.04
69219;BME280;56232;53.384;-2.732;2023-07-13T05:24:45;100923.99;;;18.77;29.30
69219;BME280;56232;53.384;-2.732;2023-07-13T05:27:10;100924.00;;;18.63;28.64
69219;BME280;56232;53.384;-2.732;2023-07-13T05:29:36;100924.89;;;18.33;28.36
69219;BME280;56232;53.384;-2.732;2023-07-13T05:32:02;100930.12;;;18.55;28.55
69219;BME280;56232;53.384;-2.732;2023-07-13T05:34:27;100934.72;;;18.40;28.50
69219;BME280;56232;53.384;-2.732;2023-07-13T05:36:53;100937.96;;;18.22;29.21
69219;BME280;56232;53.384;-2.732;2023-07-13T05:39:18;100940.19;;;17.54;29.76
69219;BME280;56232;53.384;-2.732;2023-07-13T05:41:44;100942.05;;;18.00;29.28
69219;BME280;56232;53.384;-2.732;2023-07-13T05:44:09;100939.39;;;17.32;29.93
69219;BME280;56232;53.384;-2.732;2023-07-13T05:46:35;100946.22;;;18.40;29.95
69219;BME280;56232;53.384;-2.732;2023-07-13T05:49:01;100949.66;;;18.45;30.16
69219;BME280;56232;53.384;-2.732;2023-07-13T05:51:26;100953.50;;;18.04;30.42
69219;BME280;56232;53.384;-2.732;2023-07-13T05:53:53;100957.69;;;18.61;30.10
69219;BME280;56232;53.384;-2.732;2023-07-13T05:56:17;100963.51;;;18.80;30.27
69219;BME280;56232;53.384;-2.732;2023-07-13T05:58:43;100964.67;;;18.00;30.02
69219;BME280;56232;53.384;-2.732;2023-07-13T06:01:11;100964.47;;;18.30;30.09
69219;BME280;56232;53.384;-2.732;2023-07-13T06:03:34;100964.01;;;18.52;29.99
69219;BME280;56232;53.384;-2.732;2023-07-13T06:06:00;100968.05;;;18.76;29.81
69219;BME280;56232;53.384;-2.732;2023-07-13T06:08:26;100972.28;;;19.40;29.93
69219;BME280;56232;53.384;-2.732;2023-07-13T06:10:52;100975.12;;;19.66;29.42
69219;BME280;56232;53.384;-2.732;2023-07-13T06:13:17;100977.41;;;20.19;29.26
69219;BME280;56232;53.384;-2.732;2023-07-13T06:15:43;100976.53;;;20.69;28.68
69219;BME280;56232;53.384;-2.732;2023-07-13T06:18:08;100976.85;;;21.63;27.80
69219;BME280;56232;53.384;-2.732;2023-07-13T06:20:34;100976.60;;;24.99;25.53
69219;BME280;56232;53.384;-2.732;2023-07-13T06:23:00;100977.75;;;27.46;24.01
69219;BME280;56232;53.384;-2.732;2023-07-13T06:25:26;100972.30;;;28.79;22.01
69219;BME280;56232;53.384;-2.732;2023-07-13T06:27:52;100974.19;;;31.47;21.37
69219;BME280;56232;53.384;-2.732;2023-07-13T06:30:16;100974.96;;;32.78;19.66
69219;BME280;56232;53.384;-2.732;2023-07-13T06:32:42;100974.79;;;33.53;19.06
69219;BME280;56232;53.384;-2.732;2023-07-13T06:35:08;100980.22;;;34.93;16.69
69219;BME280;56232;53.384;-2.732;2023-07-13T06:37:33;100983.66;;;36.28;16.00
69219;BME280;56232;53.384;-2.732;2023-07-13T06:39:58;100994.47;;;36.30;15.23
69219;BME280;56232;53.384;-2.732;2023-07-13T06:42:24;100991.73;;;37.93;15.17
69219;BME280;56232;53.384;-2.732;2023-07-13T06:44:50;100993.82;;;35.82;15.75
69219;BME280;56232;53.384;-2.732;2023-07-13T06:47:15;100997.53;;;35.25;15.60
69219;BME280;56232;53.384;-2.732;2023-07-13T06:49:41;100994.17;;;36.74;14.38
69219;BME280;56232;53.384;-2.732;2023-07-13T06:52:06;100994.43;;;38.15;13.23
69219;BME280;56232;53.384;-2.732;2023-07-13T06:54:32;100994.66;;;38.16;13.64
69219;BME280;56232;53.384;-2.732;2023-07-13T06:56:57;101000.47;;;36.61;13.77
69219;BME280;56232;53.384;-2.732;2023-07-13T06:59:23;101003.90;;;38.90;13.01
69219;BME280;56232;53.384;-2.732;2023-07-13T07:01:48;101003.77;;;40.15;12.67
69219;BME280;56232;53.384;-2.732;2023-07-13T07:04:14;101006.03;;;40.80;11.62
69219;BME280;56232;53.384;-2.732;2023-07-13T07:06:39;101004.47;;;41.81;11.45
69219;BME280;56232;53.384;-2.732;2023-07-13T07:09:05;101002.34;;;42.95;11.03
69219;BME280;56232;53.384;-2.732;2023-07-13T07:11:30;101003.64;;;41.24;11.31
69219;BME280;56232;53.384;-2.732;2023-07-13T07:13:56;100999.24;;;37.81;12.47
69219;BME280;56232;53.384;-2.732;2023-07-13T07:16:21;101008.29;;;34.81;13.70
69219;BME280;56232;53.384;-2.732;2023-07-13T07:18:47;101009.63;;;32.45;15.02
69219;BME280;56232;53.384;-2.732;2023-07-13T07:21:13;101011.74;;;31.22;16.33
69219;BME280;56232;53.384;-2.732;2023-07-13T07:23:43;101018.28;;;30.18;17.10
69219;BME280;56232;53.384;-2.732;2023-07-13T07:26:03;101018.61;;;28.73;18.17
69219;BME280;56232;53.384;-2.732;2023-07-13T07:28:28;101016.01;;;27.57;18.78
69219;BME280;56232;53.384;-2.732;2023-07-13T07:30:56;101018.43;;;27.25;19.42
69219;BME280;56232;53.384;-2.732;2023-07-13T07:33:19;101022.36;;;26.97;20.01
69219;BME280;56232;53.384;-2.732;2023-07-13T07:35:45;101023.71;;;27.07;20.56
69219;BME280;56232;53.384;-2.732;2023-07-13T07:38:10;101026.17;;;26.92;20.75
69219;BME280;56232;53.384;-2.732;2023-07-13T07:40:36;101025.14;;;26.59;20.82
69219;BME280;56232;53.384;-2.732;2023-07-13T07:43:01;101026.38;;;27.14;20.42
69219;BME280;56232;53.384;-2.732;2023-07-13T07:45:27;101029.63;;;26.86;20.89
69219;BME280;56232;53.384;-2.732;2023-07-13T07:47:53;101035.91;;;27.32;20.90
69219;BME280;56232;53.384;-2.732;2023-07-13T07:50:18;101031.97;;;29.68;19.63
69219;BME280;56232;53.384;-2.732;2023-07-13T07:52:43;101036.33;;;30.28;19.44
69219;BME280;56232;53.384;-2.732;2023-07-13T07:55:09;101037.63;;;28.89;19.39
69219;BME280;56232;53.384;-2.732;2023-07-13T07:57:35;101033.80;;;28.97;19.86
69219;BME280;56232;53.384;-2.732;2023-07-13T08:00:00;101038.60;;;31.07;18.45
69219;BME280;56232;53.384;-2.732;2023-07-13T08:02:25;101033.76;;;33.27;17.25
69219;BME280;56232;53.384;-2.732;2023-07-13T08:04:52;101037.71;;;35.90;16.11
69219;BME280;56232;53.384;-2.732;2023-07-13T08:07:17;101038.72;;;36.01;15.62
69219;BME280;56232;53.384;-2.732;2023-07-13T08:09:42;101039.84;;;36.44;15.03
69219;BME280;56232;53.384;-2.732;2023-07-13T08:12:08;101032.89;;;35.37;15.33
69219;BME280;56232;53.384;-2.732;2023-07-13T08:14:33;101037.79;;;34.82;15.70
69219;BME280;56232;53.384;-2.732;2023-07-13T08:16:58;101034.95;;;33.79;15.86
69219;BME280;56232;53.384;-2.732;2023-07-13T08:19:24;101031.43;;;33.84;16.50
69219;BME280;56232;53.384;-2.732;2023-07-13T08:21:50;101036.71;;;32.87;17.12
69219;BME280;56232;53.384;-2.732;2023-07-13T08:24:15;101036.17;;;31.09;17.91
69219;BME280;56232;53.384;-2.732;2023-07-13T08:26:40;101033.95;;;30.68;18.11
69219;BME280;56232;53.384;-2.732;2023-07-13T08:29:06;101042.23;;;30.80;18.73
69219;BME280;56232;53.384;-2.732;2023-07-13T08:31:31;101042.33;;;29.68;19.18
69219;BME280;56232;53.384;-2.732;2023-07-13T08:33:57;101041.58;;;28.75;19.37
69219;BME280;56232;53.384;-2.732;2023-07-13T08:36:22;101040.04;;;28.80;20.00
69219;BME280;56232;53.384;-2.732;2023-07-13T08:38:48;101040.02;;;28.20;20.13
69219;BME280;56232;53.384;-2.732;2023-07-13T08:41:15;101038.91;;;29.34;20.02
69219;BME280;56232;53.384;-2.732;2023-07-13T08:43:39;101043.00;;;30.59;19.42
69219;BME280;56232;53.384;-2.732;2023-07-13T08:46:09;101037.05;;;32.06;18.79
69219;BME280;56232;53.384;-2.732;2023-07-13T08:48:33;101042.30;;;33.64;18.33
69219;BME280;56232;53.384;-2.732;2023-07-13T08:51:00;101041.24;;;33.30;17.72
69219;BME280;56232;53.384;-2.732;2023-07-13T08:53:22;101035.70;;;34.07;17.49
69219;BME280;56232;53.384;-2.732;2023-07-13T08:55:57;101035.32;;;33.43;17.73
69219;BME280;56232;53.384;-2.732;2023-07-13T08:58:14;101034.46;;;33.50;17.60
69219;BME280;56232;53.384;-2.732;2023-07-13T09:00:43;101036.93;;;32.23;18.04
69219;BME280;56232;53.384;-2.732;2023-07-13T09:03:04;101038.56;;;32.39;18.45
69219;BME280;56232;53.384;-2.732;2023-07-13T09:05:33;101037.45;;;32.68;18.96
69219;BME280;56232;53.384;-2.732;2023-07-13T09:08:03;101039.69;;;30.96;19.09
69219;BME280;56232;53.384;-2.732;2023-07-13T09:10:23;101037.92;;;30.60;19.12
69219;BME280;56232;53.384;-2.732;2023-07-13T09:12:51;101041.09;;;31.48;19.24
69219;BME280;56232;53.384;-2.732;2023-07-13T09:15:22;101043.19;;;31.03;18.89
69219;BME280;56232;53.384;-2.732;2023-07-13T09:17:41;101038.45;;;31.22;19.10
69219;BME280;56232;53.384;-2.732;2023-07-13T09:20:06;101035.33;;;31.07;18.80
69219;BME280;56232;53.384;-2.732;2023-07-13T09:22:28;101038.24;;;32.97;18.59
69219;BME280;56232;53.384;-2.732;2023-07-13T09:24:58;101038.01;;;33.94;17.09
69219;BME280;56232;53.384;-2.732;2023-07-13T09:27:23;101035.58;;;35.11;15.80
69219;BME280;56232;53.384;-2.732;2023-07-13T09:29:47;101037.40;;;35.78;14.90
69219;BME280;56232;53.384;-2.732;2023-07-13T09:32:10;101046.80;;;35.46;14.68
69219;BME280;56232;53.384;-2.732;2023-07-13T09:34:34;101041.80;;;34.44;15.05
69219;BME280;56232;53.384;-2.732;2023-07-13T09:37:00;101041.58;;;33.65;15.52
69219;BME280;56232;53.384;-2.732;2023-07-13T09:39:27;101042.81;;;33.04;15.96
69219;BME280;56232;53.384;-2.732;2023-07-13T09:41:55;101042.85;;;33.94;15.55
69219;BME280;56232;53.384;-2.732;2023-07-13T09:44:18;101045.16;;;34.71;14.78
69219;BME280;56232;53.384;-2.732;2023-07-13T09:46:45;101049.88;;;34.77;14.71
69219;BME280;56232;53.384;-2.732;2023-07-13T09:49:10;101054.09;;;35.42;14.05
69219;BME280;56232;53.384;-2.732;2023-07-13T09:51:33;101054.67;;;35.32;14.21
69219;BME280;56232;53.384;-2.732;2023-07-13T09:53:58;101043.27;;;34.32;14.11
69219;BME280;56232;53.384;-2.732;2023-07-13T09:56:27;101048.90;;;34.71;14.72
69219;BME280;56232;53.384;-2.732;2023-07-13T09:58:50;101053.84;;;35.55;14.37
69219;BME280;56232;53.384;-2.732;2023-07-13T10:01:15;101054.45;;;35.49;14.53
69219;BME280;56232;53.384;-2.732;2023-07-13T10:06:13;101053.58;;;34.55;15.62
69219;BME280;56232;53.384;-2.732;2023-07-13T10:08:31;101056.19;;;34.77;15.74
69219;BME280;56232;53.384;-2.732;2023-07-13T10:10:59;101054.02;;;35.08;15.04
69219;BME280;56232;53.384;-2.732;2023-07-13T10:13:31;101045.80;;;35.26;14.32
69219;BME280;56232;53.384;-2.732;2023-07-13T10:15:47;101049.39;;;36.33;13.98
69219;BME280;56232;53.384;-2.732;2023-07-13T10:18:13;101048.68;;;36.23;13.62
69219;BME280;56232;53.384;-2.732;2023-07-13T10:20:39;101046.49;;;37.30;13.48
69219;BME280;56232;53.384;-2.732;2023-07-13T10:23:05;101046.48;;;36.03;13.44
69219;BME280;56232;53.384;-2.732;2023-07-13T10:25:34;101050.89;;;36.49;13.44
69219;BME280;56232;53.384;-2.732;2023-07-13T10:28:00;101049.23;;;34.44;13.86
69219;BME280;56232;53.384;-2.732;2023-07-13T10:30:23;101051.95;;;34.19;14.21
69219;BME280;56232;53.384;-2.732;2023-07-13T10:32:47;101052.90;;;34.15;14.81
69219;BME280;56232;53.384;-2.732;2023-07-13T10:35:13;101049.34;;;33.27;15.12
69219;BME280;56232;53.384;-2.732;2023-07-13T10:37:43;101050.21;;;33.89;14.85
69219;BME280;56232;53.384;-2.732;2023-07-13T10:40:04;101051.07;;;33.18;14.98
69219;BME280;56232;53.384;-2.732;2023-07-13T10:42:32;101050.16;;;33.35;15.01
69219;BME280;56232;53.384;-2.732;2023-07-13T10:44:53;101051.60;;;33.44;14.90
69219;BME280;56232;53.384;-2.732;2023-07-13T10:47:19;101051.48;;;34.02;15.05
69219;BME280;56232;53.384;-2.732;2023-07-13T10:49:45;101053.51;;;33.28;15.12
69219;BME280;56232;53.384;-2.732;2023-07-13T10:54:35;101054.71;;;33.67;15.65
69219;BME280;56232;53.384;-2.732;2023-07-13T10:57:07;101058.53;;;32.14;15.95
69219;BME280;56232;53.384;-2.732;2023-07-13T10:59:27;101056.07;;;31.82;16.25
69219;BME280;56232;53.384;-2.732;2023-07-13T11:01:57;101053.94;;;31.10;16.50
